createdAt,value
2018-06-10T00:00:32.676Z,42.8
2018-06-10T00:01:33.407Z,43.5
2018-06-10T00:02:34.130Z,40.4
2018-06-10T00:03:34.861Z,41.0
2018-06-10T00:04:35.594Z,41.5
2018-06-10T00:05:36.639Z,41.5
2018-06-10T00:06:37.342Z,40.7
2018-06-10T00:07:38.070Z,40.5
2018-06-10T00:08:38.822Z,43.5
2018-06-10T00:09:39.546Z,45.0
2018-06-10T00:10:40.267Z,46.1
2018-06-10T00:11:40.993Z,45.9
2018-06-10T00:12:41.714Z,46.9
2018-06-10T00:13:42.445Z,47.3
2018-06-10T00:14:43.177Z,47.5
2018-06-10T00:15:44.196Z,48.2
2018-06-10T00:16:45.345Z,46.0
2018-06-10T00:17:46.061Z,47.5
2018-06-10T00:18:46.792Z,47.7
2018-06-10T00:19:47.629Z,47.9
2018-06-10T00:20:48.357Z,49.6
2018-06-10T00:21:49.099Z,49.7
2018-06-10T00:22:49.820Z,50.0
2018-06-10T00:23:50.545Z,50.3
2018-06-10T00:24:51.430Z,49.9
2018-06-10T00:25:52.154Z,52.1
2018-06-10T00:26:52.894Z,55.9
2018-06-10T00:27:53.639Z,56.0
2018-06-10T00:28:54.363Z,58.5
2018-06-10T00:29:55.402Z,54.3
2018-06-10T00:30:56.129Z,55.8
2018-06-10T00:31:57.112Z,54.5
2018-06-10T00:32:57.837Z,56.2
2018-06-10T00:33:58.576Z,55.2
2018-06-10T00:34:59.658Z,57.7
2018-06-10T00:36:00.390Z,54.7
2018-06-10T00:37:01.125Z,54.3
2018-06-10T00:38:01.853Z,54.8
2018-06-10T00:39:02.580Z,55.1
2018-06-10T00:40:03.308Z,54.7
2018-06-10T00:41:04.173Z,54.9
2018-06-10T00:42:04.940Z,53.5
2018-06-10T00:43:05.699Z,55.3
2018-06-10T00:44:06.433Z,54.9
2018-06-10T00:45:07.165Z,55.7
2018-06-10T00:46:07.933Z,54.5
2018-06-10T00:47:08.976Z,53.3
2018-06-10T00:48:09.748Z,52.3
2018-06-10T00:49:10.772Z,48.6
2018-06-10T00:50:11.498Z,46.7
2018-06-10T00:51:12.313Z,44.3
2018-06-10T00:52:13.401Z,41.6
2018-06-10T00:53:14.128Z,42.7
2018-06-10T00:54:14.851Z,43.0
2018-06-10T00:55:15.575Z,42.5
2018-06-10T00:56:16.250Z,42.2
2018-06-10T00:57:16.926Z,41.7
2018-06-10T00:58:17.619Z,45.5
2018-06-10T00:59:18.333Z,45.4
2018-06-10T01:00:19.004Z,45.1
2018-06-10T01:01:19.688Z,44.7
2018-06-10T01:02:20.525Z,45.4
2018-06-10T01:03:21.254Z,44.1
2018-06-10T01:04:21.992Z,43.6
2018-06-10T01:05:22.712Z,43.6
2018-06-10T01:06:23.450Z,46.4
2018-06-10T01:07:24.222Z,40.7
2018-06-10T01:08:24.946Z,39.4
2018-06-10T01:09:25.670Z,37.6
2018-06-10T01:10:26.406Z,36.4
2018-06-10T01:11:27.106Z,36.5
2018-06-10T01:12:28.027Z,38.6
2018-06-10T01:13:28.705Z,40.0
2018-06-10T01:14:29.389Z,40.2
2018-06-10T01:15:30.055Z,38.6
2018-06-10T01:16:30.728Z,37.5
2018-06-10T01:17:31.413Z,37.2
2018-06-10T01:18:32.088Z,37.9
2018-06-10T01:19:32.766Z,37.3
2018-06-10T01:20:33.447Z,36.7
2018-06-10T01:21:34.136Z,35.8
2018-06-10T01:22:34.804Z,37.4
2018-06-10T01:23:35.482Z,37.9
2018-06-10T01:24:36.161Z,38.5
2018-06-10T01:25:36.891Z,39.8
2018-06-10T01:26:38.085Z,38.0
2018-06-10T01:27:38.752Z,39.5
2018-06-10T01:28:39.430Z,38.5
2018-06-10T01:29:40.107Z,40.0
2018-06-10T01:30:41.231Z,40.2
2018-06-10T01:31:41.963Z,41.0
2018-06-10T01:32:42.679Z,41.8
2018-06-10T01:33:43.404Z,39.4
2018-06-10T01:34:44.129Z,37.7
2018-06-10T01:35:45.273Z,37.9
2018-06-10T01:36:46.013Z,35.7
2018-06-10T01:37:46.686Z,33.6
2018-06-10T01:38:47.357Z,33.6
2018-06-10T01:39:48.032Z,33.0
2018-06-10T01:40:48.712Z,33.0
2018-06-10T01:41:49.635Z,33.0
2018-06-10T01:42:50.321Z,32.2
2018-06-10T01:43:50.996Z,31.0
2018-06-10T01:44:51.914Z,31.7
2018-06-10T01:45:52.600Z,29.8
2018-06-10T01:46:53.289Z,29.5
2018-06-10T01:47:53.976Z,29.4
2018-06-10T01:48:54.642Z,28.8
2018-06-10T01:49:55.321Z,28.5
2018-06-10T01:50:56.244Z,28.3
2018-06-10T01:51:56.930Z,29.5
2018-06-10T01:52:57.622Z,29.9
2018-06-10T01:53:58.289Z,27.9
2018-06-10T01:54:59.209Z,26.9
2018-06-10T01:56:00.141Z,26.5
2018-06-10T01:57:01.069Z,26.6
2018-06-10T01:58:01.734Z,26.2
2018-06-10T01:59:02.663Z,25.9
2018-06-10T02:00:03.343Z,26.6
2018-06-10T02:01:04.022Z,25.7
2018-06-10T02:02:04.707Z,26.4
2018-06-10T02:03:05.774Z,26.0
2018-06-10T02:04:06.451Z,25.6
2018-06-10T02:05:07.126Z,26.1
2018-06-10T02:06:08.057Z,24.8
2018-06-10T02:07:08.725Z,26.3
2018-06-10T02:08:09.807Z,27.8
2018-06-10T02:09:10.747Z,25.6
2018-06-10T02:10:11.425Z,26.3
2018-06-10T02:11:12.094Z,27.9
2018-06-10T02:12:12.765Z,27.3
2018-06-10T02:13:13.455Z,28.2
2018-06-10T02:14:14.128Z,27.7
2018-06-10T02:15:14.809Z,29.0
2018-06-10T02:16:15.483Z,27.2
2018-06-10T02:17:16.164Z,27.2
2018-06-10T02:18:16.842Z,29.5
2018-06-10T02:19:17.527Z,26.1
2018-06-10T02:20:18.193Z,26.5
2018-06-10T02:21:19.114Z,26.4
2018-06-10T02:22:20.041Z,26.6
2018-06-10T02:23:20.718Z,28.1
2018-06-10T02:24:21.399Z,27.2
2018-06-10T02:25:22.240Z,28.3
2018-06-10T02:26:23.166Z,29.5
2018-06-10T02:27:24.091Z,27.9
2018-06-10T02:28:24.766Z,27.6
2018-06-10T02:29:25.693Z,28.0
2018-06-10T02:30:26.372Z,28.8
2018-06-10T02:31:27.060Z,28.9
2018-06-10T02:32:27.766Z,27.0
2018-06-10T02:33:28.839Z,29.1
2018-06-10T02:34:29.895Z,29.6
2018-06-10T02:35:30.626Z,28.9
2018-06-10T02:36:31.920Z,28.7
2018-06-10T02:37:32.628Z,30.8
2018-06-10T02:38:33.402Z,28.7
2018-06-10T02:39:34.103Z,28.9
2018-06-10T02:40:35.355Z,28.9
2018-06-10T02:41:36.111Z,30.8
2018-06-10T02:42:37.009Z,27.9
2018-06-10T02:43:37.701Z,29.5
2018-06-10T02:44:38.547Z,29.8
2018-06-10T02:45:39.246Z,28.7
2018-06-10T02:46:40.145Z,30.7
2018-06-10T02:47:40.929Z,29.6
2018-06-10T02:48:41.619Z,29.6
2018-06-10T02:49:42.806Z,31.6
2018-06-10T02:50:43.935Z,30.2
2018-06-10T02:51:44.656Z,31.5
2018-06-10T02:52:45.841Z,29.2
2018-06-10T02:53:46.877Z,30.0
2018-06-10T02:54:47.633Z,28.7
2018-06-10T02:55:48.326Z,28.5
2018-06-10T02:56:49.371Z,27.8
2018-06-10T02:57:50.108Z,27.3
2018-06-10T02:58:51.049Z,27.4
2018-06-10T02:59:51.772Z,28.0
2018-06-10T03:00:52.608Z,28.1
2018-06-10T03:01:53.302Z,27.6
2018-06-10T03:02:54.019Z,26.4
2018-06-10T03:03:54.698Z,26.6
2018-06-10T03:04:55.367Z,26.0
2018-06-10T03:05:56.061Z,26.0
2018-06-10T03:06:56.726Z,25.6
2018-06-10T03:07:57.453Z,25.0
2018-06-10T03:08:58.084Z,25.6
2018-06-10T03:09:58.775Z,25.7
2018-06-10T03:10:59.450Z,25.1
2018-06-10T03:12:00.125Z,27.3
2018-06-10T03:13:00.813Z,26.3
2018-06-10T03:14:01.479Z,27.2
2018-06-10T03:15:02.215Z,26.1
2018-06-10T03:16:02.890Z,24.9
2018-06-10T03:17:03.573Z,25.5
2018-06-10T03:18:04.507Z,26.5
2018-06-10T03:19:05.178Z,25.2
2018-06-10T03:20:05.859Z,26.1
2018-06-10T03:21:06.532Z,25.3
2018-06-10T03:22:07.209Z,26.1
2018-06-10T03:23:08.142Z,24.3
2018-06-10T03:24:08.817Z,25.1
2018-06-10T03:25:09.497Z,24.8
2018-06-10T03:26:10.178Z,24.6
2018-06-10T03:27:10.852Z,24.7
2018-06-10T03:28:11.527Z,24.5
2018-06-10T03:29:12.204Z,24.9
2018-06-10T03:30:12.881Z,23.7
2018-06-10T03:31:13.806Z,24.2
2018-06-10T03:32:14.485Z,23.6
2018-06-10T03:33:15.155Z,24.1
2018-06-10T03:34:16.079Z,24.7
2018-06-10T03:35:16.762Z,24.9
2018-06-10T03:36:17.450Z,23.9
2018-06-10T03:37:18.170Z,24.4
2018-06-10T03:38:18.847Z,24.1
2018-06-10T03:39:19.531Z,22.6
2018-06-10T03:40:20.198Z,24.8
2018-06-10T03:41:20.976Z,24.6
2018-06-10T03:42:21.668Z,25.0
2018-06-10T03:43:22.346Z,25.8
2018-06-10T03:44:23.021Z,26.3
2018-06-10T03:45:23.715Z,26.9
2018-06-10T03:46:24.440Z,27.7
2018-06-10T03:47:25.358Z,30.6
2018-06-10T03:48:26.050Z,32.3
2018-06-10T03:49:26.727Z,31.3
2018-06-10T03:50:27.427Z,32.7
2018-06-10T03:51:28.108Z,30.0
2018-06-10T03:52:28.777Z,35.7
2018-06-10T03:53:29.463Z,37.1
2018-06-10T03:54:30.158Z,35.7
2018-06-10T03:55:30.841Z,31.5
2018-06-10T03:56:31.529Z,31.8
2018-06-10T03:57:32.201Z,30.1
2018-06-10T03:58:33.122Z,30.7
2018-06-10T03:59:33.817Z,26.5
2018-06-10T04:00:34.493Z,26.5
2018-06-10T04:01:35.164Z,25.1
2018-06-10T04:02:35.864Z,25.9
2018-06-10T04:03:36.547Z,27.0
2018-06-10T04:04:37.228Z,26.0
2018-06-10T04:05:37.919Z,26.2
2018-06-10T04:06:38.597Z,27.0
2018-06-10T04:07:39.280Z,28.6
2018-06-10T04:08:39.957Z,29.6
2018-06-10T04:09:40.943Z,30.3
2018-06-10T04:10:41.617Z,31.3
2018-06-10T04:11:42.292Z,30.9
2018-06-10T04:12:42.981Z,32.2
2018-06-10T04:13:43.658Z,32.3
2018-06-10T04:14:44.389Z,32.9
2018-06-10T04:15:45.094Z,33.8
2018-06-10T04:16:45.774Z,33.4
2018-06-10T04:17:46.451Z,38.0
2018-06-10T04:18:47.136Z,36.7
2018-06-10T04:19:47.823Z,36.6
2018-06-10T04:20:48.501Z,40.3
2018-06-10T04:21:49.187Z,39.5
2018-06-10T04:22:49.866Z,41.4
2018-06-10T04:23:50.541Z,42.3
2018-06-10T04:24:51.235Z,41.5
2018-06-10T04:25:51.917Z,44.2
2018-06-10T04:26:52.603Z,41.1
2018-06-10T04:27:53.286Z,44.5
2018-06-10T04:28:53.961Z,44.6
2018-06-10T04:29:54.647Z,45.2
2018-06-10T04:30:55.341Z,46.9
2018-06-10T04:31:56.182Z,46.6
2018-06-10T04:32:56.869Z,48.6
2018-06-10T04:33:57.547Z,50.3
2018-06-10T04:34:58.223Z,49.0
2018-06-10T04:35:58.932Z,48.7
2018-06-10T04:36:59.657Z,50.9
2018-06-10T04:38:00.343Z,49.1
2018-06-10T04:39:01.033Z,50.8
2018-06-10T04:40:01.714Z,51.8
2018-06-10T04:41:02.385Z,53.5
2018-06-10T04:42:03.066Z,53.4
2018-06-10T04:43:03.751Z,56.2
2018-06-10T04:44:04.441Z,55.8
2018-06-10T04:45:05.125Z,55.3
2018-06-10T04:46:06.047Z,54.2
2018-06-10T04:47:06.740Z,55.7
2018-06-10T04:48:07.763Z,57.9
2018-06-10T04:49:08.694Z,56.6
2018-06-10T04:50:09.373Z,56.2
2018-06-10T04:51:10.058Z,55.5
2018-06-10T04:52:10.738Z,56.6
2018-06-10T04:53:11.514Z,58.4
2018-06-10T04:54:12.212Z,56.7
2018-06-10T04:55:12.889Z,61.2
2018-06-10T04:56:13.570Z,59.0
2018-06-10T04:57:14.251Z,58.4
2018-06-10T04:58:14.958Z,57.6
2018-06-10T04:59:15.646Z,57.8
2018-06-10T05:00:16.611Z,56.3
2018-06-10T05:01:17.308Z,58.6
2018-06-10T05:02:17.989Z,62.4
2018-06-10T05:03:19.031Z,63.3
2018-06-10T05:04:20.580Z,62.9
2018-06-10T05:05:21.473Z,60.1
2018-06-10T05:06:22.148Z,60.5
2018-06-10T05:07:22.827Z,60.7
2018-06-10T05:08:23.513Z,60.6
2018-06-10T05:09:24.502Z,60.8
2018-06-10T05:10:25.348Z,59.9
2018-06-10T05:11:26.077Z,62.5
2018-06-10T05:12:26.747Z,62.6
2018-06-10T05:13:27.430Z,61.6
2018-06-10T05:14:28.113Z,108.2
2018-06-10T05:15:29.048Z,73.2
2018-06-10T05:16:29.726Z,67.9
2018-06-10T05:17:30.406Z,65.6
2018-06-10T05:18:31.097Z,66.5
2018-06-10T05:19:31.782Z,65.8
2018-06-10T05:20:32.820Z,65.2
2018-06-10T05:21:33.495Z,65.4
2018-06-10T05:22:34.179Z,62.2
2018-06-10T05:23:34.866Z,64.7
2018-06-10T05:24:35.546Z,71.4
2018-06-10T05:25:36.692Z,66.6
2018-06-10T05:26:37.373Z,73.9
2018-06-10T05:27:38.051Z,69.9
2018-06-10T05:28:38.739Z,75.7
2018-06-10T05:29:39.424Z,87.3
2018-06-10T05:30:40.508Z,82.5
2018-06-10T05:31:41.192Z,77.4
2018-06-10T05:32:41.875Z,75.6
2018-06-10T05:33:42.561Z,79.8
2018-06-10T05:34:43.237Z,84.0
2018-06-10T05:35:43.992Z,79.5
2018-06-10T05:36:44.677Z,76.1
2018-06-10T05:37:45.605Z,74.9
2018-06-10T05:38:46.294Z,77.2
2018-06-10T05:39:46.973Z,74.1
2018-06-10T05:40:47.657Z,73.9
2018-06-10T05:41:48.333Z,78.0
2018-06-10T05:42:49.022Z,75.1
2018-06-10T05:43:49.704Z,80.1
2018-06-10T05:44:50.649Z,82.9
2018-06-10T05:45:51.338Z,83.9
2018-06-10T05:46:52.005Z,80.2
2018-06-10T05:47:52.682Z,81.4
2018-06-10T05:48:53.369Z,85.2
2018-06-10T05:49:54.322Z,86.0
2018-06-10T05:50:55.009Z,87.4
2018-06-10T05:51:55.688Z,84.6
2018-06-10T05:52:56.367Z,86.9
2018-06-10T05:53:57.198Z,85.8
2018-06-10T05:54:57.890Z,87.3
2018-06-10T05:55:58.572Z,90.9
2018-06-10T05:56:59.260Z,90.0
2018-06-10T05:57:59.949Z,89.6
2018-06-10T05:59:00.633Z,86.2
2018-06-10T06:00:01.323Z,83.3
2018-06-10T06:01:02.048Z,79.6
2018-06-10T06:02:02.990Z,80.2
2018-06-10T06:03:03.677Z,85.3
2018-06-10T06:04:04.354Z,86.6
2018-06-10T06:05:05.296Z,87.7
2018-06-10T06:06:06.443Z,85.2
2018-06-10T06:07:07.140Z,90.0
2018-06-10T06:08:07.818Z,92.5
2018-06-10T06:09:08.498Z,92.8
2018-06-10T06:10:09.181Z,97.7
2018-06-10T06:11:09.875Z,91.8
2018-06-10T06:12:10.558Z,93.6
2018-06-10T06:13:11.238Z,92.2
2018-06-10T06:14:11.921Z,88.2
2018-06-10T06:15:12.606Z,90.4
2018-06-10T06:16:13.393Z,87.9
2018-06-10T06:17:14.071Z,86.6
2018-06-10T06:18:14.758Z,87.2
2018-06-10T06:19:15.457Z,84.9
2018-06-10T06:20:16.136Z,82.7
2018-06-10T06:21:16.931Z,83.0
2018-06-10T06:22:17.612Z,81.5
2018-06-10T06:23:18.298Z,78.2
2018-06-10T06:24:18.984Z,82.6
2018-06-10T06:25:19.658Z,84.2
2018-06-10T06:26:20.338Z,83.1
2018-06-10T06:27:21.039Z,85.6
2018-06-10T06:28:21.698Z,86.3
2018-06-10T06:29:22.381Z,84.9
2018-06-10T06:30:23.074Z,84.2
2018-06-10T06:31:23.756Z,87.8
2018-06-10T06:32:24.439Z,86.6
2018-06-10T06:33:25.175Z,89.4
2018-06-10T06:34:25.861Z,85.2
2018-06-10T06:35:26.545Z,81.4
2018-06-10T06:36:27.225Z,78.3
2018-06-10T06:37:27.923Z,76.5
2018-06-10T06:38:29.050Z,73.9
2018-06-10T06:39:29.770Z,75.5
2018-06-10T06:40:30.424Z,70.5
2018-06-10T06:41:31.107Z,68.9
2018-06-10T06:42:31.785Z,69.6
2018-06-10T06:43:32.667Z,71.4
2018-06-10T06:44:33.364Z,76.6
2018-06-10T06:45:34.048Z,77.9
2018-06-10T06:46:34.730Z,80.3
2018-06-10T06:47:35.677Z,77.1
2018-06-10T06:48:36.814Z,79.2
2018-06-10T06:49:37.491Z,78.1
2018-06-10T06:50:38.178Z,81.5
2018-06-10T06:51:38.867Z,83.8
2018-06-10T06:52:39.578Z,85.3
2018-06-10T06:53:40.228Z,82.7
2018-06-10T06:54:40.920Z,88.1
2018-06-10T06:55:41.608Z,82.1
2018-06-10T06:56:42.543Z,87.7
2018-06-10T06:57:43.219Z,79.8
2018-06-10T06:58:43.906Z,80.3
2018-06-10T06:59:44.583Z,82.1
2018-06-10T07:00:45.281Z,80.3
2018-06-10T07:01:45.960Z,81.0
2018-06-10T07:02:46.653Z,78.2
2018-06-10T07:03:47.347Z,76.1
2018-06-10T07:04:48.338Z,78.4
2018-06-10T07:05:49.165Z,74.1
2018-06-10T07:06:49.846Z,78.6
2018-06-10T07:07:50.531Z,82.7
2018-06-10T07:08:51.220Z,77.9
2018-06-10T07:09:51.902Z,79.3
2018-06-10T07:10:52.588Z,79.9
2018-06-10T07:11:53.290Z,75.9
2018-06-10T07:12:53.952Z,76.5
2018-06-10T07:13:54.640Z,76.1
2018-06-10T07:14:55.329Z,73.8
2018-06-10T07:15:56.015Z,78.3
2018-06-10T07:16:56.706Z,75.9
2018-06-10T07:17:57.382Z,70.1
2018-06-10T07:18:58.414Z,71.0
2018-06-10T07:19:59.126Z,71.7
2018-06-10T07:20:59.780Z,74.5
2018-06-10T07:22:00.464Z,74.2
2018-06-10T07:23:01.148Z,82.3
2018-06-10T07:24:02.320Z,77.3
2018-06-10T07:25:03.004Z,77.9
2018-06-10T07:26:03.682Z,76.0
2018-06-10T07:27:04.421Z,75.5
2018-06-10T07:28:05.100Z,74.6
2018-06-10T07:29:05.783Z,75.1
2018-06-10T07:30:06.817Z,77.9
2018-06-10T07:31:07.495Z,76.1
2018-06-10T07:32:08.175Z,71.3
2018-06-10T07:33:08.873Z,72.8
2018-06-10T07:34:09.554Z,77.8
2018-06-10T07:35:10.333Z,74.2
2018-06-10T07:36:11.022Z,75.5
2018-06-10T07:37:11.779Z,74.5
2018-06-10T07:38:12.401Z,78.1
2018-06-10T07:39:13.091Z,72.5
2018-06-10T07:40:14.117Z,73.4
2018-06-10T07:41:14.809Z,77.2
2018-06-10T07:42:15.491Z,75.3
2018-06-10T07:43:16.170Z,81.0
2018-06-10T07:44:16.851Z,80.3
2018-06-10T07:45:17.978Z,74.2
2018-06-10T07:46:18.911Z,76.8
2018-06-10T07:47:19.608Z,79.7
2018-06-10T07:48:20.598Z,78.0
2018-06-10T07:49:21.212Z,78.2
2018-06-10T07:50:22.348Z,75.5
2018-06-10T07:51:23.033Z,82.6
2018-06-10T07:52:23.707Z,79.6
2018-06-10T07:53:24.392Z,79.9
2018-06-10T07:54:25.078Z,78.5
2018-06-10T07:55:25.807Z,79.7
2018-06-10T07:56:26.486Z,81.3
2018-06-10T07:57:27.158Z,75.6
2018-06-10T07:58:27.840Z,79.5
2018-06-10T07:59:28.523Z,75.5
2018-06-10T08:00:29.214Z,70.3
2018-06-10T08:01:29.891Z,69.3
2018-06-10T08:02:30.619Z,69.1
2018-06-10T08:03:31.310Z,66.8
2018-06-10T08:04:31.994Z,65.6
2018-06-10T08:05:32.684Z,64.1
2018-06-10T08:06:33.366Z,62.8
2018-06-10T08:07:34.203Z,62.1
2018-06-10T08:08:34.881Z,61.2
2018-06-10T08:09:35.582Z,62.3
2018-06-10T08:10:36.256Z,61.6
2018-06-10T08:11:36.950Z,61.8
2018-06-10T08:12:37.637Z,64.7
2018-06-10T08:13:38.315Z,64.5
2018-06-10T08:14:38.997Z,64.7
2018-06-10T08:15:39.921Z,64.1
2018-06-10T08:16:40.605Z,63.0
2018-06-10T08:17:41.295Z,60.1
2018-06-10T08:18:42.004Z,58.3
2018-06-10T08:19:42.665Z,57.9
2018-06-10T08:20:43.355Z,55.1
2018-06-10T08:21:44.026Z,56.5
2018-06-10T08:22:44.706Z,54.1
2018-06-10T08:23:45.394Z,50.1
2018-06-10T08:24:46.071Z,50.5
2018-06-10T08:25:46.748Z,47.1
2018-06-10T08:26:47.527Z,46.0
2018-06-10T08:27:48.210Z,45.1
2018-06-10T08:28:48.899Z,44.6
2018-06-10T08:29:49.576Z,43.0
2018-06-10T08:30:50.259Z,42.3
2018-06-10T08:31:50.946Z,42.6
2018-06-10T08:32:51.626Z,42.9
2018-06-10T08:33:52.307Z,42.4
2018-06-10T08:34:52.992Z,41.8
2018-06-10T08:35:53.664Z,39.1
2018-06-10T08:36:54.426Z,39.7
2018-06-10T08:37:55.099Z,42.3
2018-06-10T08:38:55.785Z,42.6
2018-06-10T08:39:56.467Z,40.6
2018-06-10T08:40:57.165Z,37.5
2018-06-10T08:41:57.855Z,37.9
2018-06-10T08:42:58.797Z,36.4
2018-06-10T08:43:59.620Z,32.8
2018-06-10T08:45:00.165Z,32.7
2018-06-10T08:46:00.853Z,27.7
2018-06-10T08:47:01.528Z,27.4
2018-06-10T08:48:02.210Z,27.8
2018-06-10T08:49:02.903Z,28.8
2018-06-10T08:50:03.585Z,27.9
2018-06-10T08:51:04.274Z,29.2
2018-06-10T08:52:05.012Z,29.1
2018-06-10T08:53:05.690Z,28.7
2018-06-10T08:54:06.398Z,26.4
2018-06-10T08:55:07.078Z,27.1
2018-06-10T08:56:07.764Z,27.6
2018-06-10T08:57:08.507Z,28.5
2018-06-10T08:58:09.191Z,27.2
2018-06-10T08:59:09.878Z,27.6
2018-06-10T09:00:10.582Z,28.3
2018-06-10T09:01:11.262Z,27.3
2018-06-10T09:02:12.004Z,29.5
2018-06-10T09:03:12.688Z,28.5
2018-06-10T09:04:13.370Z,26.5
2018-06-10T09:05:14.056Z,23.7
2018-06-10T09:06:14.737Z,23.0
2018-06-10T09:07:15.473Z,23.6
2018-06-10T09:08:16.144Z,24.8
2018-06-10T09:09:16.836Z,25.5
2018-06-10T09:10:17.527Z,25.0
2018-06-10T09:11:18.217Z,23.9
2018-06-10T09:12:18.908Z,21.6
2018-06-10T09:13:19.579Z,24.9
2018-06-10T09:14:20.264Z,23.8
2018-06-10T09:15:21.197Z,25.0
2018-06-10T09:16:21.887Z,23.9
2018-06-10T09:17:22.564Z,21.9
2018-06-10T09:18:23.249Z,22.8
2018-06-10T09:19:23.930Z,24.3
2018-06-10T09:20:24.631Z,22.3
2018-06-10T09:21:25.317Z,22.4
2018-06-10T09:22:26.076Z,21.8
2018-06-10T09:23:26.690Z,20.4
2018-06-10T09:24:27.769Z,21.1
2018-06-10T09:25:28.472Z,21.0
2018-06-10T09:26:29.152Z,21.9
2018-06-10T09:27:29.851Z,20.6
2018-06-10T09:28:30.533Z,19.5
2018-06-10T09:29:31.319Z,20.1
2018-06-10T09:30:32.003Z,20.0
2018-06-10T09:31:32.689Z,23.1
2018-06-10T09:32:33.624Z,22.9
2018-06-10T09:33:34.314Z,22.5
2018-06-10T09:34:35.002Z,20.1
2018-06-10T09:35:35.680Z,22.7
2018-06-10T09:36:36.378Z,24.4
2018-06-10T09:37:37.072Z,25.0
2018-06-10T09:38:37.766Z,22.8
2018-06-10T09:39:38.443Z,20.8
2018-06-10T09:40:39.130Z,22.5
2018-06-10T09:41:39.928Z,21.7
2018-06-10T09:42:40.620Z,21.4
2018-06-10T09:43:41.308Z,20.4
2018-06-10T09:44:41.987Z,21.2
2018-06-10T09:45:42.671Z,23.5
2018-06-10T09:46:43.512Z,23.3
2018-06-10T09:47:44.452Z,24.1
2018-06-10T09:48:45.130Z,25.5
2018-06-10T09:49:45.839Z,26.5
2018-06-10T09:50:46.499Z,27.6
2018-06-10T09:51:47.280Z,27.1
2018-06-10T09:52:47.965Z,28.9
2018-06-10T09:53:48.643Z,30.1
2018-06-10T09:54:49.338Z,27.8
2018-06-10T09:55:50.019Z,25.9
2018-06-10T09:56:50.692Z,28.1
2018-06-10T09:57:51.425Z,30.6
2018-06-10T09:58:52.361Z,32.8
2018-06-10T09:59:53.046Z,34.9
2018-06-10T10:00:53.731Z,33.9
2018-06-10T10:01:54.424Z,31.9
2018-06-10T10:02:55.103Z,31.8
2018-06-10T10:03:56.044Z,31.3
2018-06-10T10:04:56.716Z,27.7
2018-06-10T10:05:57.411Z,28.4
2018-06-10T10:06:58.101Z,27.4
2018-06-10T10:07:58.797Z,25.5
2018-06-10T10:08:59.500Z,27.8
2018-06-10T10:10:00.176Z,26.3
2018-06-10T10:11:00.931Z,24.4
2018-06-10T10:12:01.613Z,25.1
2018-06-10T10:13:02.302Z,27.0
2018-06-10T10:14:02.988Z,29.0
2018-06-10T10:15:03.664Z,29.0
2018-06-10T10:16:04.363Z,27.0
2018-06-10T10:17:05.049Z,26.7
2018-06-10T10:18:05.728Z,28.6
2018-06-10T10:19:06.426Z,32.9
2018-06-10T10:20:07.101Z,34.2
2018-06-10T10:21:07.855Z,34.9
2018-06-10T10:22:08.539Z,35.3
2018-06-10T10:23:09.229Z,34.3
2018-06-10T10:24:09.910Z,35.0
2018-06-10T10:25:10.600Z,34.1
2018-06-10T10:26:11.290Z,33.2
2018-06-10T10:27:11.994Z,30.7
2018-06-10T10:28:12.677Z,32.8
2018-06-10T10:29:13.379Z,30.5
2018-06-10T10:30:14.067Z,30.1
2018-06-10T10:31:14.798Z,28.2
2018-06-10T10:32:15.497Z,29.5
2018-06-10T10:33:16.172Z,28.2
2018-06-10T10:34:16.908Z,26.3
2018-06-10T10:35:17.645Z,25.4
2018-06-10T10:36:18.399Z,23.5
2018-06-10T10:37:19.386Z,22.7
2018-06-10T10:38:20.114Z,23.7
2018-06-10T10:39:20.858Z,23.5
2018-06-10T10:40:21.597Z,24.2
2018-06-10T10:41:22.336Z,22.6
2018-06-10T10:42:23.434Z,23.0
2018-06-10T10:43:24.167Z,25.3
2018-06-10T10:44:24.910Z,25.3
2018-06-10T10:45:25.641Z,24.2
2018-06-10T10:46:26.379Z,22.1
2018-06-10T10:47:27.162Z,21.4
2018-06-10T10:48:27.903Z,20.2
2018-06-10T10:49:28.633Z,21.4
2018-06-10T10:50:29.381Z,22.2
2018-06-10T10:51:30.115Z,20.6
2018-06-10T10:52:30.851Z,17.7
2018-06-10T10:53:31.589Z,18.5
2018-06-10T10:54:32.326Z,17.9
2018-06-10T10:55:33.061Z,16.1
2018-06-10T10:56:33.796Z,16.5
2018-06-10T10:57:34.536Z,16.0
2018-06-10T10:58:35.660Z,15.8
2018-06-10T10:59:36.398Z,14.8
2018-06-10T11:00:37.132Z,16.6
2018-06-10T11:01:37.876Z,16.2
2018-06-10T11:02:38.594Z,16.9
2018-06-10T11:03:39.583Z,17.9
2018-06-10T11:04:40.311Z,18.1
2018-06-10T11:05:41.039Z,18.1
2018-06-10T11:06:41.770Z,17.3
2018-06-10T11:07:42.508Z,16.7
2018-06-10T11:08:43.234Z,17.7
2018-06-10T11:09:43.971Z,17.7
2018-06-10T11:10:44.813Z,16.5
2018-06-10T11:11:45.561Z,17.1
2018-06-10T11:12:46.294Z,16.7
2018-06-10T11:13:47.319Z,16.9
2018-06-10T11:14:48.108Z,16.0
2018-06-10T11:15:48.799Z,17.5
2018-06-10T11:16:49.599Z,15.1
2018-06-10T11:17:50.333Z,14.8
2018-06-10T11:18:51.069Z,15.4
2018-06-10T11:19:51.796Z,15.9
2018-06-10T11:20:52.523Z,17.5
2018-06-10T11:21:53.255Z,19.0
2018-06-10T11:22:53.997Z,18.9
2018-06-10T11:23:54.737Z,18.7
2018-06-10T11:24:55.484Z,18.2
2018-06-10T11:25:56.222Z,18.4
2018-06-10T11:26:57.771Z,18.1
2018-06-10T11:27:58.457Z,19.0
2018-06-10T11:28:59.141Z,18.9
2018-06-10T11:29:59.882Z,19.4
2018-06-10T11:31:00.618Z,19.6
2018-06-10T11:32:01.352Z,20.2
2018-06-10T11:33:02.077Z,19.5
2018-06-10T11:34:02.822Z,20.6
2018-06-10T11:35:03.501Z,20.5
2018-06-10T11:36:04.237Z,17.5
2018-06-10T11:37:04.979Z,17.5
2018-06-10T11:38:05.713Z,19.9
2018-06-10T11:39:06.455Z,28.2
2018-06-10T11:40:07.186Z,17.6
2018-06-10T11:41:07.936Z,17.5
2018-06-10T11:42:08.678Z,18.3
2018-06-10T11:43:09.604Z,17.7
2018-06-10T11:44:10.347Z,18.2
2018-06-10T11:45:11.084Z,17.8
2018-06-10T11:46:11.822Z,18.6
2018-06-10T11:47:12.548Z,18.7
2018-06-10T11:48:13.273Z,19.1
2018-06-10T11:49:14.019Z,19.7
2018-06-10T11:50:14.748Z,20.3
2018-06-10T11:51:15.495Z,20.0
2018-06-10T11:52:16.253Z,20.1
2018-06-10T11:53:16.962Z,20.2
2018-06-10T11:54:17.713Z,20.6
2018-06-10T11:55:18.456Z,20.8
2018-06-10T11:56:19.191Z,18.9
2018-06-10T11:57:20.099Z,18.2
2018-06-10T11:58:20.828Z,16.5
2018-06-10T11:59:21.559Z,15.7
2018-06-10T12:00:22.565Z,14.8
2018-06-10T12:01:23.246Z,13.8
2018-06-10T12:02:24.346Z,12.8
2018-06-10T12:03:25.027Z,13.9
2018-06-10T12:04:25.707Z,12.9
2018-06-10T12:05:26.416Z,13.2
2018-06-10T12:06:27.097Z,13.3
2018-06-10T12:07:27.783Z,12.9
2018-06-10T12:08:28.467Z,12.3
2018-06-10T12:09:29.500Z,13.2
2018-06-10T12:10:30.187Z,12.6
2018-06-10T12:11:30.875Z,13.6
2018-06-10T12:12:31.568Z,13.6
2018-06-10T12:13:32.308Z,15.1
2018-06-10T12:14:33.100Z,15.1
2018-06-10T12:15:33.830Z,15.9
2018-06-10T12:16:34.576Z,16.6
2018-06-10T12:17:35.296Z,16.6
2018-06-10T12:18:36.031Z,16.0
2018-06-10T12:19:36.759Z,15.5
2018-06-10T12:20:37.498Z,16.2
2018-06-10T12:21:38.254Z,15.6
2018-06-10T12:22:39.019Z,15.2
2018-06-10T12:23:39.684Z,14.1
2018-06-10T12:24:40.905Z,13.9
2018-06-10T12:25:41.988Z,13.2
2018-06-10T12:26:43.513Z,13.2
2018-06-10T12:27:44.434Z,14.3
2018-06-10T12:28:45.175Z,14.5
2018-06-10T12:29:45.915Z,14.5
2018-06-10T12:30:46.647Z,13.3
2018-06-10T12:31:47.390Z,14.0
2018-06-10T12:32:48.123Z,15.5
2018-06-10T12:33:48.869Z,14.8
2018-06-10T12:34:49.598Z,14.1
2018-06-10T12:35:50.339Z,13.9
2018-06-10T12:36:51.073Z,14.3
2018-06-10T12:37:51.793Z,14.3
2018-06-10T12:38:52.545Z,14.4
2018-06-10T12:39:53.267Z,13.1
2018-06-10T12:40:53.950Z,14.6
2018-06-10T12:41:54.947Z,15.4
2018-06-10T12:42:55.877Z,14.1
2018-06-10T12:43:56.861Z,13.2
2018-06-10T12:44:57.848Z,14.2
2018-06-10T12:45:58.797Z,13.9
2018-06-10T12:46:59.772Z,14.6
2018-06-10T12:48:00.478Z,14.6
2018-06-10T12:49:01.187Z,15.1
2018-06-10T12:50:02.168Z,14.8
2018-06-10T12:51:02.872Z,15.5
2018-06-10T12:52:03.561Z,16.6
2018-06-10T12:53:04.246Z,16.3
2018-06-10T12:54:04.948Z,15.4
2018-06-10T12:55:05.873Z,15.5
2018-06-10T12:56:06.544Z,15.2
2018-06-10T12:57:07.240Z,13.9
2018-06-10T12:58:07.930Z,14.1
2018-06-10T12:59:08.669Z,14.9
2018-06-10T13:00:09.358Z,14.3
2018-06-10T13:01:10.643Z,14.4
2018-06-10T13:02:11.321Z,14.3
2018-06-10T13:03:12.023Z,14.7
2018-06-10T13:04:13.206Z,15.4
2018-06-10T13:05:13.902Z,14.2
2018-06-10T13:06:14.633Z,14.3
2018-06-10T13:07:15.367Z,14.7
2018-06-10T13:08:16.053Z,15.9
2018-06-10T13:09:16.734Z,14.9
2018-06-10T13:10:17.702Z,15.7
2018-06-10T13:11:18.385Z,15.0
2018-06-10T13:12:19.079Z,16.0
2018-06-10T13:13:19.823Z,15.5
2018-06-10T13:14:20.581Z,16.6
2018-06-10T13:15:21.256Z,15.9
2018-06-10T13:16:21.984Z,15.5
2018-06-10T13:17:22.666Z,15.8
2018-06-10T13:18:23.358Z,15.8
2018-06-10T13:19:24.038Z,15.3
2018-06-10T13:20:24.718Z,16.8
2018-06-10T13:21:25.425Z,16.6
2018-06-10T13:22:26.106Z,16.0
2018-06-10T13:23:26.792Z,16.9
2018-06-10T13:24:27.481Z,16.9
2018-06-10T13:25:28.166Z,15.2
2018-06-10T13:26:28.860Z,16.8
2018-06-10T13:27:29.555Z,16.0
2018-06-10T13:28:30.236Z,14.2